Time;durP1;ratioP1;P1;durP2;ratioP2;P2;SDS_P1;SDS_P2;PMS_P1;PMS_P2;Temp;Humidity;BMP_temperature;BMP_pressure;BME280_temperature;BME280_humidity;BME280_pressure;Samples;Min_cycle;Max_cycle;Signal;HPM_P1;HPM_P2
2023/08/17 00:00:31;;;;;;;;;;;;;;;23.78;67.82;101594.72;4999447;28;4049;-68
2023/08/17 00:02:58;;;;;;;;;;;;;;;23.77;67.69;101595.38;4995558;28;4214;-68
2023/08/17 00:05:26;;;;;;;;;;;;;;;23.76;67.82;101599.69;4996632;28;4130;-68
2023/08/17 00:07:52;;;;;;;;;;;;;;;23.75;67.60;101593.13;4997316;28;4046;-68
2023/08/17 00:10:19;;;;;;;;;;;;;;;23.76;67.71;101588.84;5001872;28;4145;-68
2023/08/17 00:12:45;;;;;;;;;;;;;;;23.74;67.61;101580.09;4997662;28;4026;-68
2023/08/17 00:15:11;;;;;;;;;;;;;;;23.75;67.60;101578.69;5002385;28;4133;-68
2023/08/17 00:17:38;;;;;;;;;;;;;;;23.76;67.52;101582.34;4999037;28;4324;-68
2023/08/17 00:20:05;;;;;;;;;;;;;;;23.75;67.52;101587.34;5001364;28;4264;-68
2023/08/17 00:22:31;;;;;;;;;;;;;;;23.74;67.33;101585.88;5002153;28;4162;-68
2023/08/17 00:24:57;;;;;;;;;;;;;;;23.72;67.46;101582.84;5001830;28;3979;-68
2023/08/17 00:27:24;;;;;;;;;;;;;;;23.73;67.22;101583.59;5000533;28;4222;-68
2023/08/17 00:29:51;;;;;;;;;;;;;;;23.73;67.45;101583.59;5001299;28;3972;-68
2023/08/17 00:32:17;;;;;;;;;;;;;;;23.71;67.38;101575.59;5000737;28;4223;-68
2023/08/17 00:34:46;;;;;;;;;;;;;;;23.72;67.40;101577.06;5003831;28;4130;-68
2023/08/17 00:37:12;;;;;;;;;;;;;;;23.71;67.24;101575.59;5006465;28;4148;-68
2023/08/17 00:39:39;;;;;;;;;;;;;;;23.71;67.19;101566.91;5001942;28;4192;-68
2023/08/17 00:42:07;;;;;;;;;;;;;;;23.71;67.24;101569.03;5002688;28;4158;-68
2023/08/17 00:44:34;;;;;;;;;;;;;;;23.71;67.06;101569.03;5001115;28;4046;-68
2023/08/17 00:47:01;;;;;;;;;;;;;;;23.70;67.18;101562.53;4999684;28;4184;-68
2023/08/17 00:49:28;;;;;;;;;;;;;;;23.71;67.10;101566.91;4997368;28;4972;-68
2023/08/17 00:51:54;;;;;;;;;;;;;;;23.70;67.19;101562.53;4997077;28;4350;-67
2023/08/17 00:54:23;;;;;;;;;;;;;;;23.69;67.04;101561.06;5001920;28;4197;-68
2023/08/17 00:56:49;;;;;;;;;;;;;;;23.68;67.06;101559.53;4998755;28;4154;-68
2023/08/17 00:59:16;;;;;;;;;;;;;;;23.68;67.31;101570.38;5010285;28;4158;-68
2023/08/17 01:01:42;;;;;;;;;;;;;;;23.66;67.09;101556.56;4996388;28;4214;-68
2023/08/17 01:04:09;;;;;;;;;;;;;;;23.67;67.21;101558.06;4993971;28;4322;-68
2023/08/17 01:06:36;;;;;;;;;;;;;;;23.67;67.13;101555.16;4998362;28;4021;-68
2023/08/17 01:09:05;;;;;;;;;;;;;;;23.67;66.78;101558.06;5011198;28;4278;-68
2023/08/17 01:11:36;;;;;;;;;;;;;;;23.66;67.15;101550.78;5002853;28;4010;-68
2023/08/17 01:14:04;;;;;;;;;;;;;;;23.66;66.78;101556.56;4997377;28;4140;-68
2023/08/17 01:16:35;;;;;;;;;;;;;;;23.65;66.94;101555.09;5001554;28;4532;-68
2023/08/17 01:19:01;;;;;;;;;;;;;;;23.63;66.96;101546.31;4995179;28;4321;-68
2023/08/17 01:21:29;;;;;;;;;;;;;;;23.63;66.74;101552.84;5008387;28;4144;-68
2023/08/17 01:23:57;;;;;;;;;;;;;;;23.63;67.03;101563.66;4998235;28;4524;-68
2023/08/17 01:26:24;;;;;;;;;;;;;;;23.62;66.93;101568.72;4998695;28;4243;-68
2023/08/17 01:28:52;;;;;;;;;;;;;;;23.62;67.02;101562.19;5010712;28;4497;-68
2023/08/17 01:31:19;;;;;;;;;;;;;;;23.63;66.88;101557.88;5007924;28;4123;-68
2023/08/17 01:33:52;;;;;;;;;;;;;;;23.62;66.73;101550.63;5003229;28;4232;-68
2023/08/17 01:36:39;;;;;;;;;;;;;;;23.61;66.89;101560.69;4994478;28;6345;-68
2023/08/17 01:39:06;;;;;;;;;;;;;;;23.61;66.77;101563.56;4995691;28;4262;-68
2023/08/17 01:41:33;;;;;;;;;;;;;;;23.59;66.90;101561.34;4998892;28;4179;-68
2023/08/17 01:43:59;;;;;;;;;;;;;;;23.61;66.78;101566.47;4989864;28;4199;-68
2023/08/17 01:46:31;;;;;;;;;;;;;;;23.61;66.78;101560.69;5003933;28;4238;-68
2023/08/17 01:48:57;;;;;;;;;;;;;;;23.60;66.81;101562.84;5000278;28;4495;-68
2023/08/17 01:51:25;;;;;;;;;;;;;;;23.59;66.92;101558.47;4999447;28;4139;-68
2023/08/17 01:53:51;;;;;;;;;;;;;;;23.60;66.85;101565.72;5020643;28;4041;-68
2023/08/17 01:56:17;;;;;;;;;;;;;;;23.61;66.63;101566.47;4998703;28;4036;-68
2023/08/17 01:58:44;;;;;;;;;;;;;;;23.61;66.77;101575.13;5001054;28;4051;-68
2023/08/17 02:01:10;;;;;;;;;;;;;;;23.60;66.62;101579.44;4994616;28;4113;-68
2023/08/17 02:03:37;;;;;;;;;;;;;;;23.58;66.71;101579.34;4986689;28;4312;-68
2023/08/17 02:06:03;;;;;;;;;;;;;;;23.59;66.65;101575.03;4993774;28;4352;-68
2023/08/17 02:08:30;;;;;;;;;;;;;;;23.60;66.64;101573.66;5001083;28;4899;-68
2023/08/17 02:10:56;;;;;;;;;;;;;;;23.58;66.58;101567.78;5001797;28;4058;-68
2023/08/17 02:13:23;;;;;;;;;;;;;;;23.60;66.46;101553.41;4997847;28;4213;-68
2023/08/17 02:15:49;;;;;;;;;;;;;;;23.60;66.67;101564.97;5016844;28;4179;-67
2023/08/17 02:18:16;;;;;;;;;;;;;;;23.59;66.30;101563.47;4999297;28;4342;-68
2023/08/17 02:20:42;;;;;;;;;;;;;;;23.58;66.53;101562.00;5013962;28;4133;-68
2023/08/17 02:23:10;;;;;;;;;;;;;;;23.58;66.50;101559.09;5012236;28;4187;-68
2023/08/17 02:25:39;;;;;;;;;;;;;;;23.58;66.16;101556.22;5008387;28;4014;-68
2023/08/17 02:28:06;;;;;;;;;;;;;;;23.57;66.16;101555.47;5001204;28;4155;-68
2023/08/17 02:30:32;;;;;;;;;;;;;;;23.58;66.36;101550.44;5000718;28;4090;-68
2023/08/17 02:32:59;;;;;;;;;;;;;;;23.57;66.11;101548.94;4998746;28;4351;-68
2023/08/17 02:35:25;;;;;;;;;;;;;;;23.57;66.18;101543.91;5000608;28;4186;-68
2023/08/17 02:37:52;;;;;;;;;;;;;;;23.57;66.31;101540.25;4998668;28;4166;-68
2023/08/17 02:40:19;;;;;;;;;;;;;;;23.57;66.12;101549.69;5014637;28;4067;-67
2023/08/17 02:42:45;;;;;;;;;;;;;;;23.58;66.12;101544.66;5000383;28;4089;-68
2023/08/17 02:45:11;;;;;;;;;;;;;;;23.58;66.18;101544.66;4999228;28;4305;-68
2023/08/17 02:47:38;;;;;;;;;;;;;;;23.57;65.91;101546.81;4996085;28;4024;-68
2023/08/17 02:50:05;;;;;;;;;;;;;;;23.57;66.04;101557.59;5001377;28;4050;-68
2023/08/17 02:52:32;;;;;;;;;;;;;;;23.56;66.21;101547.44;4999426;28;4071;-68
2023/08/17 02:54:58;;;;;;;;;;;;;;;23.56;65.96;101548.19;5001494;28;4062;-68
2023/08/17 02:57:25;;;;;;;;;;;;;;;23.56;65.81;101553.22;5017210;28;5044;-67
2023/08/17 02:59:52;;;;;;;;;;;;;;;23.55;66.01;101557.53;4997749;28;4205;-67
2023/08/17 03:02:18;;;;;;;;;;;;;;;23.57;66.02;101543.16;4995510;28;4094;-68
2023/08/17 03:04:45;;;;;;;;;;;;;;;23.57;66.00;101537.38;5000931;28;4018;-67
2023/08/17 03:07:11;;;;;;;;;;;;;;;23.55;65.74;101548.88;4997683;28;4163;-68
2023/08/17 03:09:37;;;;;;;;;;;;;;;23.54;65.82;101541.56;4998455;28;4096;-67
2023/08/17 03:12:04;;;;;;;;;;;;;;;23.54;65.92;101556.03;5000844;28;4452;-67
2023/08/17 03:14:30;;;;;;;;;;;;;;;23.55;65.94;101540.19;5007879;28;4228;-67
2023/08/17 03:16:58;;;;;;;;;;;;;;;23.55;65.83;101545.97;4999901;28;4338;-67
2023/08/17 03:19:25;;;;;;;;;;;;;;;23.55;65.99;101540.19;5000468;28;4094;-67
2023/08/17 03:21:51;;;;;;;;;;;;;;;23.54;65.75;101535.78;4999318;28;4136;-67
2023/08/17 03:24:17;;;;;;;;;;;;;;;23.53;65.87;101543.72;4996597;28;4144;-68
2023/08/17 03:26:44;;;;;;;;;;;;;;;23.54;65.54;101541.56;4997207;28;4127;-68
2023/08/17 03:29:10;;;;;;;;;;;;;;;23.53;65.74;101546.63;4997060;28;4063;-67
2023/08/17 03:31:37;;;;;;;;;;;;;;;23.53;65.60;101543.72;5012419;28;4191;-67
2023/08/17 03:34:06;;;;;;;;;;;;;;;23.53;65.66;101531.44;5010549;28;4173;-67
2023/08/17 03:36:32;;;;;;;;;;;;;;;23.52;65.65;101527.03;4998452;28;4333;-67
2023/08/17 03:38:59;;;;;;;;;;;;;;;23.53;65.59;101531.44;4994193;28;4167;-68
2023/08/17 03:41:25;;;;;;;;;;;;;;;23.53;65.38;101528.53;4995466;28;4055;-67
2023/08/17 03:43:52;;;;;;;;;;;;;;;23.52;65.48;101535.69;4995027;28;4214;-72
2023/08/17 03:46:18;;;;;;;;;;;;;;;23.52;65.57;101529.91;5000237;28;4213;-72
2023/08/17 03:48:45;;;;;;;;;;;;;;;23.52;65.48;101547.25;5001068;28;4136;-72
2023/08/17 03:51:11;;;;;;;;;;;;;;;23.52;65.17;101535.69;4998062;28;4302;-72
2023/08/17 03:53:38;;;;;;;;;;;;;;;23.52;65.46;101544.38;4998026;28;5476;-72
2023/08/17 03:56:04;;;;;;;;;;;;;;;23.51;65.31;101545.78;5012582;28;4103;-72
2023/08/17 03:58:34;;;;;;;;;;;;;;;23.50;65.10;101542.16;4999512;28;4076;-72
2023/08/17 04:01:01;;;;;;;;;;;;;;;23.50;65.27;101539.28;4997855;28;4106;-72
2023/08/17 04:03:29;;;;;;;;;;;;;;;23.51;65.04;101540.75;5011613;28;4039;-72
2023/08/17 04:05:55;;;;;;;;;;;;;;;23.50;65.21;101538.50;5010699;28;4282;-72
2023/08/17 04:08:22;;;;;;;;;;;;;;;23.50;65.08;101533.50;4994953;28;4151;-72
2023/08/17 04:10:48;;;;;;;;;;;;;;;23.50;65.05;101526.94;5012903;28;4208;-70
2023/08/17 04:13:15;;;;;;;;;;;;;;;23.50;65.16;101527.72;5002692;28;4180;-72
2023/08/17 04:15:41;;;;;;;;;;;;;;;23.50;65.16;101518.28;5016707;28;4014;-72
2023/08/17 04:18:08;;;;;;;;;;;;;;;23.50;65.04;101521.16;5001765;28;4302;-72
2023/08/17 04:20:34;;;;;;;;;;;;;;;23.49;65.29;101525.47;4997802;28;4247;-72
2023/08/17 04:23:01;;;;;;;;;;;;;;;23.49;65.27;101517.53;5009060;28;4149;-72
2023/08/17 04:25:28;;;;;;;;;;;;;;;23.49;65.00;101508.13;5016210;28;4153;-72
2023/08/17 04:27:54;;;;;;;;;;;;;;;23.48;65.15;101512.41;5001469;28;4143;-73
2023/08/17 04:30:22;;;;;;;;;;;;;;;23.48;65.17;101512.41;5001669;28;4104;-72
2023/08/17 04:32:54;;;;;;;;;;;;;;;23.47;65.07;101505.13;4999457;28;4251;-72
2023/08/17 04:35:21;;;;;;;;;;;;;;;23.50;64.56;101509.59;4995202;28;3965;-72
2023/08/17 04:37:47;;;;;;;;;;;;;;;23.47;64.78;101517.44;5006592;28;4107;-72
2023/08/17 04:40:14;;;;;;;;;;;;;;;23.45;64.13;101522.38;5006037;28;4198;-72
2023/08/17 04:42:41;;;;;;;;;;;;;;;23.43;64.09;101517.25;5003617;28;4409;-72
2023/08/17 04:45:08;;;;;;;;;;;;;;;23.40;63.88;101515.69;4999303;28;4199;-72
2023/08/17 04:47:38;;;;;;;;;;;;;;;23.45;63.51;101526.00;5014524;28;4125;-71
2023/08/17 04:50:06;;;;;;;;;;;;;;;23.40;63.58;101518.56;4992867;28;4299;-72
2023/08/17 04:52:33;;;;;;;;;;;;;;;23.40;63.44;101525.09;4996604;28;4625;-72
2023/08/17 04:55:01;;;;;;;;;;;;;;;23.40;63.33;101525.09;5000007;28;4225;-72
2023/08/17 04:57:29;;;;;;;;;;;;;;;23.39;62.92;101529.41;5012945;28;4270;-72
2023/08/17 04:59:57;;;;;;;;;;;;;;;23.35;62.93;101535.00;4999078;28;4197;-72
2023/08/17 05:02:23;;;;;;;;;;;;;;;23.37;62.52;101531.44;5011343;28;4056;-72
2023/08/17 05:04:51;;;;;;;;;;;;;;;23.30;62.66;101526.81;5007966;28;4211;-71
2023/08/17 05:07:17;;;;;;;;;;;;;;;23.45;62.52;101522.38;4994666;28;4057;-73
2023/08/17 05:09:44;;;;;;;;;;;;;;;23.41;62.90;101520.81;4995573;28;4890;-76
2023/08/17 05:12:10;;;;;;;;;;;;;;;23.33;62.39;101529.13;4986203;28;4485;-75
2023/08/17 05:14:36;;;;;;;;;;;;;;;23.27;61.39;101540.38;4995910;28;4146;-73
2023/08/17 05:17:03;;;;;;;;;;;;;;;23.17;61.04;101542.84;4995615;28;4516;-73
2023/08/17 05:19:29;;;;;;;;;;;;;;;23.12;61.26;101541.16;5010040;28;4057;-73
2023/08/17 05:21:56;;;;;;;;;;;;;;;23.09;60.93;101545.34;4997118;28;4575;-75
2023/08/17 05:24:23;;;;;;;;;;;;;;;23.11;60.76;101551.22;5020948;28;4183;-74
2023/08/17 05:26:50;;;;;;;;;;;;;;;23.08;60.66;101559.03;5012633;28;4143;-73
2023/08/17 05:29:16;;;;;;;;;;;;;;;23.08;60.41;101558.31;5001442;28;4411;-74
2023/08/17 05:31:43;;;;;;;;;;;;;;;23.07;60.71;101572.00;5002745;28;4060;-73
2023/08/17 05:34:09;;;;;;;;;;;;;;;23.05;61.05;101588.50;5011462;28;4131;-73
2023/08/17 05:36:36;;;;;;;;;;;;;;;23.07;61.03;101592.22;5006156;28;4091;-74
2023/08/17 05:39:03;;;;;;;;;;;;;;;23.11;60.71;101620.53;4991860;28;4250;-71
2023/08/17 05:41:30;;;;;;;;;;;;;;;23.13;60.63;101623.53;4994674;28;4035;-73
2023/08/17 05:43:56;;;;;;;;;;;;;;;22.06;63.62;101641.38;4994733;28;4030;-71
2023/08/17 05:46:22;;;;;;;;;;;;;;;21.34;66.88;101643.31;4991704;28;4047;-65
2023/08/17 05:48:49;;;;;;;;;;;;;;;21.27;67.21;101647.25;5006442;28;4229;-65
2023/08/17 05:51:16;;;;;;;;;;;;;;;21.04;67.92;101644.50;5002870;28;4087;-66
2023/08/17 05:53:42;;;;;;;;;;;;;;;21.08;68.84;101648.38;4999413;28;4202;-66
2023/08/17 05:56:08;;;;;;;;;;;;;;;21.58;66.63;101663.34;4997220;28;4462;-68
2023/08/17 05:58:35;;;;;;;;;;;;;;;22.23;65.35;101660.28;5002067;28;4083;-69
2023/08/17 06:01:07;;;;;;;;;;;;;;;21.88;65.12;101666.38;5007237;28;5316;-69
2023/08/17 06:03:34;;;;;;;;;;;;;;;22.05;65.22;101668.69;5005309;28;4095;-69
2023/08/17 06:06:01;;;;;;;;;;;;;;;21.62;66.15;101660.66;4993916;28;4423;-69
2023/08/17 06:08:27;;;;;;;;;;;;;;;21.17;68.27;101655.34;5002365;28;4519;-70
2023/08/17 06:10:54;;;;;;;;;;;;;;;21.00;69.27;101652.91;5005233;28;4195;-69
2023/08/17 06:13:20;;;;;;;;;;;;;;;21.08;69.14;101647.63;5003656;28;4120;-70
2023/08/17 06:15:46;;;;;;;;;;;;;;;20.74;70.52;101647.16;5000655;28;4052;-69
2023/08/17 06:18:13;;;;;;;;;;;;;;;21.20;69.00;101636.78;5008466;28;4112;-70
2023/08/17 06:20:39;;;;;;;;;;;;;;;21.34;68.71;101639.69;5005887;28;4185;-70
2023/08/17 06:23:06;;;;;;;;;;;;;;;21.25;69.43;101641.38;4998573;28;4094;-68
2023/08/17 06:25:32;;;;;;;;;;;;;;;21.02;70.45;101630.00;4992965;28;4112;-69
2023/08/17 06:27:58;;;;;;;;;;;;;;;21.00;69.45;101624.88;4993736;28;4340;-68
2023/08/17 06:30:25;;;;;;;;;;;;;;;20.88;70.52;101622.06;4995639;28;4099;-68
2023/08/17 06:32:51;;;;;;;;;;;;;;;20.69;71.68;101608.03;4997382;28;4153;-68
2023/08/17 06:35:18;;;;;;;;;;;;;;;20.60;73.17;101600.31;4997572;28;4092;-68
2023/08/17 06:37:44;;;;;;;;;;;;;;;20.71;74.66;101606.00;4996283;28;4157;-68
2023/08/17 06:40:10;;;;;;;;;;;;;;;20.51;75.71;101605.56;4999331;28;4141;-69
2023/08/17 06:42:37;;;;;;;;;;;;;;;20.41;76.22;101596.34;4998897;28;4044;-68
2023/08/17 06:45:03;;;;;;;;;;;;;;;19.86;79.24;101596.00;4991270;28;4258;-68
2023/08/17 06:47:30;;;;;;;;;;;;;;;21.42;74.45;101593.31;4987717;28;4720;-75
2023/08/17 06:49:57;;;;;;;;;;;;;;;21.84;71.37;101586.16;4998907;28;4042;-76
2023/08/17 06:52:24;;;;;;;;;;;;;;;21.88;71.92;101592.16;4999736;28;4113;-75
2023/08/17 06:54:50;;;;;;;;;;;;;;;21.82;72.84;101593.97;4998134;28;4332;-76
2023/08/17 06:57:17;;;;;;;;;;;;;;;21.98;73.70;101596.94;5002574;28;4158;-76
2023/08/17 06:59:45;;;;;;;;;;;;;;;21.79;73.78;101601.75;5003001;28;4058;-75
2023/08/17 07:02:12;;;;;;;;;;;;;;;21.83;72.98;101595.44;5005648;28;4123;-77
2023/08/17 07:04:38;;;;;;;;;;;;;;;21.85;73.69;101593.44;4995248;28;4048;-76
2023/08/17 07:07:05;;;;;;;;;;;;;;;21.74;73.74;101583.50;4998495;28;4215;-75
2023/08/17 07:09:31;;;;;;;;;;;;;;;21.80;74.10;101602.50;4994828;28;4205;-75
2023/08/17 07:11:57;;;;;;;;;;;;;;;21.82;73.89;101582.44;4995891;28;4116;-76
2023/08/17 07:14:24;;;;;;;;;;;;;;;21.78;74.11;101591.59;4993615;28;4388;-77
2023/08/17 07:16:51;;;;;;;;;;;;;;;21.87;73.99;101607.19;4987844;28;4180;-76
2023/08/17 07:19:17;;;;;;;;;;;;;;;21.88;74.56;101602.94;4985602;28;4192;-76
2023/08/17 07:21:44;;;;;;;;;;;;;;;21.75;75.78;101602.28;4984112;28;4123;-75
2023/08/17 07:24:12;;;;;;;;;;;;;;;21.82;75.14;101597.59;4993876;28;4036;-76
2023/08/17 07:26:38;;;;;;;;;;;;;;;21.84;74.84;101596.94;4996332;28;4233;-76
2023/08/17 07:29:05;;;;;;;;;;;;;;;21.68;75.41;101603.34;4996787;28;4508;-75
2023/08/17 07:31:33;;;;;;;;;;;;;;;21.56;76.14;101596.97;4990984;28;4031;-77
2023/08/17 07:34:00;;;;;;;;;;;;;;;21.54;76.32;101579.56;4997620;28;4168;-75
2023/08/17 07:36:26;;;;;;;;;;;;;;;21.70;75.30;101565.25;4985978;28;5338;-77
2023/08/17 07:38:52;;;;;;;;;;;;;;;21.66;75.56;101576.56;4994864;28;4252;-77
2023/08/17 07:41:19;;;;;;;;;;;;;;;21.60;75.68;101574.13;4992378;28;4181;-75
2023/08/17 07:43:45;;;;;;;;;;;;;;;21.60;75.79;101556.81;5000127;28;3937;-74
2023/08/17 07:46:11;;;;;;;;;;;;;;;21.65;75.38;101564.28;4995599;28;4134;-79
2023/08/17 07:48:38;;;;;;;;;;;;;;;22.02;74.64;101571.94;4998627;28;4647;-72
2023/08/17 07:51:04;;;;;;;;;;;;;;;22.44;72.50;101568.97;5006702;28;4507;-71
2023/08/17 07:53:31;;;;;;;;;;;;;;;22.83;71.28;101562.91;5000808;28;4105;-71
2023/08/17 07:55:57;;;;;;;;;;;;;;;22.96;70.12;101555.56;5002203;28;4053;-74
2023/08/17 07:58:24;;;;;;;;;;;;;;;22.95;69.74;101557.72;5004624;28;4490;-72
2023/08/17 08:00:50;;;;;;;;;;;;;;;22.88;70.01;101558.81;4996577;28;4059;-72
2023/08/17 08:03:17;;;;;;;;;;;;;;;23.10;69.55;101561.28;5004385;28;4134;-72
2023/08/17 08:05:43;;;;;;;;;;;;;;;23.26;68.95;101553.38;5007501;28;4195;-70
2023/08/17 08:08:09;;;;;;;;;;;;;;;23.30;68.62;101544.88;5006571;28;4139;-69
2023/08/17 08:10:36;;;;;;;;;;;;;;;23.36;68.59;101548.03;5007358;28;4128;-72
2023/08/17 08:13:02;;;;;;;;;;;;;;;23.52;68.08;101539.34;5008866;28;4072;-72
2023/08/17 08:15:29;;;;;;;;;;;;;;;23.55;67.88;101535.16;5005282;28;4135;-72
2023/08/17 08:17:55;;;;;;;;;;;;;;;23.56;67.79;101527.22;5013497;28;4245;-72
2023/08/17 08:20:22;;;;;;;;;;;;;;;23.61;67.59;101520.19;5010458;28;4275;-72
2023/08/17 08:22:48;;;;;;;;;;;;;;;23.62;67.71;101501.47;5008413;28;4101;-71
2023/08/17 08:25:15;;;;;;;;;;;;;;;23.61;67.54;101494.19;5005063;28;4161;-71
2023/08/17 08:27:41;;;;;;;;;;;;;;;23.61;67.74;101492.03;5006678;28;4171;-72
2023/08/17 08:30:08;;;;;;;;;;;;;;;23.61;67.46;101497.81;5001601;28;4036;-73
2023/08/17 08:32:34;;;;;;;;;;;;;;;23.70;67.04;101498.16;4997816;28;4223;-70
2023/08/17 08:35:01;;;;;;;;;;;;;;;23.77;67.04;101503.56;5000193;28;4317;-72
2023/08/17 08:37:28;;;;;;;;;;;;;;;23.79;66.90;101500.78;5008574;28;3990;-69
2023/08/17 08:39:55;;;;;;;;;;;;;;;23.76;66.69;101502.09;5006414;28;4014;-69
2023/08/17 08:42:21;;;;;;;;;;;;;;;23.74;66.91;101499.13;5006213;28;4257;-70
2023/08/17 08:44:48;;;;;;;;;;;;;;;23.78;66.53;101499.28;5000984;28;4064;-71
2023/08/17 08:47:16;;;;;;;;;;;;;;;23.76;66.56;101505.00;5000916;28;4153;-69
2023/08/17 08:50:02;;;;;;;;;;;;;;;23.80;66.58;101502.28;5001726;28;4117;-71
2023/08/17 08:52:35;;;;;;;;;;;;;;;23.77;66.64;101503.56;4996242;28;4175;-70
2023/08/17 08:55:03;;;;;;;;;;;;;;;23.87;66.47;101505.41;5006613;28;4055;-73
2023/08/17 08:57:29;;;;;;;;;;;;;;;23.87;66.08;101506.19;5007560;28;4127;-73
2023/08/17 08:59:55;;;;;;;;;;;;;;;23.91;66.22;101515.00;4998620;28;4146;-73
2023/08/17 09:02:23;;;;;;;;;;;;;;;23.89;65.99;101511.28;5005344;28;4086;-73
2023/08/17 09:04:50;;;;;;;;;;;;;;;23.87;66.19;101505.41;5001147;28;3977;-73
2023/08/17 09:07:17;;;;;;;;;;;;;;;23.92;66.07;101504.19;4997633;28;4050;-74
2023/08/17 09:09:44;;;;;;;;;;;;;;;23.72;66.54;101504.78;4999950;28;4208;-70
2023/08/17 09:12:10;;;;;;;;;;;;;;;23.71;67.66;101509.09;5001752;28;4143;-73
2023/08/17 09:14:38;;;;;;;;;;;;;;;23.76;67.38;101515.81;5002730;28;4279;-76
2023/08/17 09:17:05;;;;;;;;;;;;;;;23.68;67.44;101512.53;5002302;28;4041;-75
2023/08/17 09:19:34;;;;;;;;;;;;;;;23.63;67.36;101514.50;5003949;28;4134;-74
2023/08/17 09:22:00;;;;;;;;;;;;;;;23.62;67.14;101510.88;5005440;28;4313;-74
2023/08/17 09:24:34;;;;;;;;;;;;;;;23.63;67.17;101505.84;5003758;28;4094;-75
2023/08/17 09:27:00;;;;;;;;;;;;;;;23.61;66.83;101506.47;4984418;28;4095;-74
2023/08/17 09:29:26;;;;;;;;;;;;;;;23.61;66.94;101500.69;5000756;28;4127;-75
2023/08/17 09:31:53;;;;;;;;;;;;;;;23.76;66.78;101502.09;4998354;28;4194;-73
2023/08/17 09:34:19;;;;;;;;;;;;;;;23.87;66.72;101499.63;5004546;28;3966;-73
2023/08/17 09:36:47;;;;;;;;;;;;;;;24.07;66.36;101506.25;5001853;28;4051;-71
2023/08/17 09:39:15;;;;;;;;;;;;;;;24.05;66.10;101509.06;5001314;28;4139;-70
2023/08/17 09:41:41;;;;;;;;;;;;;;;23.99;66.07;101505.94;5004950;28;4320;-72
2023/08/17 09:44:09;;;;;;;;;;;;;;;23.99;66.23;101500.88;5001014;28;4149;-72
2023/08/17 09:46:35;;;;;;;;;;;;;;;24.02;65.86;101516.19;4999200;28;3939;-79
2023/08/17 09:49:04;;;;;;;;;;;;;;;24.01;65.90;101514.69;4999226;28;4208;-68
2023/08/17 09:51:30;;;;;;;;;;;;;;;24.01;65.92;101509.66;5005998;28;3918;-69
2023/08/17 09:53:57;;;;;;;;;;;;;;;23.86;66.38;101503.94;4997637;28;4192;-69
2023/08/17 09:56:26;;;;;;;;;;;;;;;23.96;66.64;101507.22;5003883;28;4060;-72
2023/08/17 09:58:52;;;;;;;;;;;;;;;23.98;66.12;101498.66;5003783;28;4254;-68
2023/08/17 10:01:19;;;;;;;;;;;;;;;24.08;66.00;101490.41;5000388;28;4187;-69
2023/08/17 10:03:45;;;;;;;;;;;;;;;24.14;65.95;101496.41;5013821;28;4017;-73
2023/08/17 10:06:15;;;;;;;;;;;;;;;23.87;66.28;101500.38;4996531;28;4710;-68
2023/08/17 10:08:43;;;;;;;;;;;;;;;23.77;66.55;101497.78;4998067;28;4157;-67
2023/08/17 10:11:10;;;;;;;;;;;;;;;23.75;66.60;101500.59;5004027;28;4132;-70
2023/08/17 10:13:43;;;;;;;;;;;;;;;24.08;66.46;101507.75;4997277;28;4218;-65
2023/08/17 10:16:13;;;;;;;;;;;;;;;24.22;66.07;101502.53;4993916;28;4132;-65
2023/08/17 10:18:43;;;;;;;;;;;;;;;24.31;65.90;101489.16;4997618;28;4060;-67
2023/08/17 10:21:17;;;;;;;;;;;;;;;24.38;65.33;101499.56;4994233;28;4073;-67
2023/08/17 10:23:44;;;;;;;;;;;;;;;24.42;65.40;101487.41;5000046;28;4213;-68
2023/08/17 10:26:11;;;;;;;;;;;;;;;24.43;65.47;101486.00;5002165;28;4079;-67
2023/08/17 10:28:37;;;;;;;;;;;;;;;24.47;65.29;101489.09;5002634;28;4277;-69
2023/08/17 10:31:04;;;;;;;;;;;;;;;24.44;65.20;101481.69;4986743;28;4081;-68
2023/08/17 10:33:38;;;;;;;;;;;;;;;24.35;65.30;101479.88;4998095;28;4056;-67
2023/08/17 10:36:04;;;;;;;;;;;;;;;24.32;65.33;101489.88;4995950;28;4267;-66
2023/08/17 10:38:31;;;;;;;;;;;;;;;24.37;65.68;101491.53;4995163;28;4198;-66
2023/08/17 10:41:10;;;;;;;;;;;;;;;24.40;65.09;101478.66;4993699;28;4015;-67
2023/08/17 10:43:55;;;;;;;;;;;;;;;24.20;65.58;101475.69;4990640;28;4320;-69
2023/08/17 10:46:21;;;;;;;;;;;;;;;24.14;66.00;101481.22;5002936;28;4574;-67
2023/08/17 10:48:48;;;;;;;;;;;;;;;24.11;66.22;101477.50;4996448;28;4175;-66
2023/08/17 10:51:16;;;;;;;;;;;;;;;24.14;65.96;101475.41;4999504;28;4123;-66
2023/08/17 10:53:43;;;;;;;;;;;;;;;24.22;65.87;101487.34;4998106;28;4103;-70
2023/08/17 10:56:11;;;;;;;;;;;;;;;24.29;65.60;101476.75;5003592;28;4241;-68
2023/08/17 10:58:37;;;;;;;;;;;;;;;24.33;65.42;101485.59;4999621;28;4168;-68
2023/08/17 11:01:03;;;;;;;;;;;;;;;24.31;65.50;101482.63;5003660;28;4331;-66
2023/08/17 11:03:30;;;;;;;;;;;;;;;24.30;65.71;101475.34;4998779;28;4969;-64
2023/08/17 11:05:56;;;;;;;;;;;;;;;24.34;65.44;101479.13;4995394;28;4192;-65
2023/08/17 11:08:32;;;;;;;;;;;;;;;24.34;65.49;101478.41;4999558;28;4478;-65
2023/08/17 11:10:59;;;;;;;;;;;;;;;24.16;65.94;101473.34;4997196;28;4087;-72
2023/08/17 11:13:29;;;;;;;;;;;;;;;24.45;65.29;101471.59;4992755;28;4247;-68
2023/08/17 11:15:55;;;;;;;;;;;;;;;24.29;65.64;101468.06;4992603;28;4590;-68
2023/08/17 11:18:22;;;;;;;;;;;;;;;24.28;66.31;101472.34;4995485;28;4269;-68
2023/08/17 11:20:48;;;;;;;;;;;;;;;24.52;65.38;101472.63;4994990;28;4152;-66
2023/08/17 11:23:15;;;;;;;;;;;;;;;24.64;64.92;101468.03;4998343;28;4117;-63
2023/08/17 11:25:41;;;;;;;;;;;;;;;24.30;65.54;101469.53;4996353;28;4181;-67
2023/08/17 11:28:11;;;;;;;;;;;;;;;24.21;66.05;101460.56;5003262;28;4089;-68
2023/08/17 11:30:38;;;;;;;;;;;;;;;24.16;66.16;101473.34;5005073;28;4048;-68
2023/08/17 11:33:05;;;;;;;;;;;;;;;24.44;66.15;101470.88;4996842;28;4142;-65
2023/08/17 11:35:32;;;;;;;;;;;;;;;24.60;65.39;101462.09;4998931;28;4030;-64
2023/08/17 11:37:58;;;;;;;;;;;;;;;24.67;65.18;101466.72;5014887;28;4254;-65
2023/08/17 11:40:25;;;;;;;;;;;;;;;24.71;64.90;101471.16;4999503;28;4144;-64
2023/08/17 11:42:51;;;;;;;;;;;;;;;24.70;64.88;101470.41;5002100;28;4013;-63
2023/08/17 11:45:17;;;;;;;;;;;;;;;24.78;64.96;101473.59;4997340;28;4081;-64
2023/08/17 11:47:44;;;;;;;;;;;;;;;24.83;64.70;101468.72;4997521;28;4219;-66
2023/08/17 11:50:11;;;;;;;;;;;;;;;24.58;64.59;101467.81;4995562;28;4155;-69
2023/08/17 11:52:50;;;;;;;;;;;;;;;24.50;65.39;101469.63;4997333;28;4232;-65
2023/08/17 11:55:20;;;;;;;;;;;;;;;24.44;65.35;101464.31;4997152;28;4006;-65
2023/08/17 11:57:47;;;;;;;;;;;;;;;24.40;65.58;101464.16;4999090;28;4264;-65
2023/08/17 12:00:17;;;;;;;;;;;;;;;24.36;66.00;101464.75;4998344;28;4098;-65
2023/08/17 12:02:43;;;;;;;;;;;;;;;24.35;65.69;101466.16;4997923;28;4154;-66
2023/08/17 12:05:11;;;;;;;;;;;;;;;24.36;65.85;101466.91;5002450;28;4165;-66
2023/08/17 12:07:38;;;;;;;;;;;;;;;24.32;65.99;101460.94;4998451;28;4177;-66
2023/08/17 12:10:04;;;;;;;;;;;;;;;24.46;65.71;101459.38;4999724;28;4153;-65
2023/08/17 12:12:31;;;;;;;;;;;;;;;24.52;65.86;101455.25;4998104;28;4296;-66
2023/08/17 12:14:58;;;;;;;;;;;;;;;24.43;66.37;101454.16;5004017;28;4163;-67
2023/08/17 12:17:24;;;;;;;;;;;;;;;24.52;66.36;101452.34;4999244;28;4186;-66
2023/08/17 12:19:54;;;;;;;;;;;;;;;24.42;66.89;101452.69;4997209;28;4031;-66
2023/08/17 12:22:23;;;;;;;;;;;;;;;24.40;67.06;101458.38;4998101;28;4204;-66
2023/08/17 12:24:50;;;;;;;;;;;;;;;24.37;67.17;101448.88;4995239;28;4256;-67
2023/08/17 12:27:18;;;;;;;;;;;;;;;24.36;67.29;101447.38;4996321;28;4056;-66
2023/08/17 12:29:48;;;;;;;;;;;;;;;24.55;67.39;101442.31;4998093;28;4058;-64
2023/08/17 12:32:15;;;;;;;;;;;;;;;24.94;66.34;101453.19;4995228;28;3998;-64
2023/08/17 12:34:42;;;;;;;;;;;;;;;24.69;66.30;101450.81;5010155;28;4077;-67
2023/08/17 12:37:09;;;;;;;;;;;;;;;24.70;66.58;101440.72;5003180;28;4105;-65
2023/08/17 12:39:36;;;;;;;;;;;;;;;24.95;66.00;101446.00;4999940;28;4251;-63
2023/08/17 12:42:03;;;;;;;;;;;;;;;24.97;65.91;101440.28;4996048;28;4224;-65
2023/08/17 12:44:29;;;;;;;;;;;;;;;24.98;65.76;101430.16;4999071;28;4093;-65
2023/08/17 12:46:56;;;;;;;;;;;;;;;24.99;65.73;101436.69;4997170;28;4043;-64